sensor_id;sensor_type;location;lat;lon;timestamp;pressure;altitude;pressure_sealevel;temperature;humidity
4024;BME280;2026;51.002;13.668;2023-03-25T00:02:19;97992.38;;;10.45;81.18
4024;BME280;2026;51.002;13.668;2023-03-25T00:07:24;97976.66;;;10.45;80.95
4024;BME280;2026;51.002;13.668;2023-03-25T00:12:26;97986.97;;;10.52;80.36
4024;BME280;2026;51.002;13.668;2023-03-25T00:17:31;97969.13;;;10.49;80.11
4024;BME280;2026;51.002;13.668;2023-03-25T00:22:34;97964.41;;;10.33;80.94
4024;BME280;2026;51.002;13.668;2023-03-25T00:27:41;97963.25;;;10.41;80.34
4024;BME280;2026;51.002;13.668;2023-03-25T00:32:46;97953.84;;;10.45;79.75
4024;BME280;2026;51.002;13.668;2023-03-25T00:37:51;97948.31;;;10.42;80.02
4024;BME280;2026;51.002;13.668;2023-03-25T00:42:58;97954.09;;;10.27;80.75
4024;BME280;2026;51.002;13.668;2023-03-25T00:48:03;97947.25;;;10.09;81.51
4024;BME280;2026;51.002;13.668;2023-03-25T00:53:07;97957.50;;;10.10;81.35
4024;BME280;2026;51.002;13.668;2023-03-25T00:58:10;97957.44;;;9.93;81.93
4024;BME280;2026;51.002;13.668;2023-03-25T01:03:14;97948.09;;;9.97;81.75
4024;BME280;2026;51.002;13.668;2023-03-25T01:08:17;97956.88;;;9.91;82.70
4024;BME280;2026;51.002;13.668;2023-03-25T01:13:25;97952.16;;;10.05;81.80
4024;BME280;2026;51.002;13.668;2023-03-25T01:18:30;97932.16;;;9.99;82.09
4024;BME280;2026;51.002;13.668;2023-03-25T01:23:35;97931.19;;;9.88;82.53
4024;BME280;2026;51.002;13.668;2023-03-25T01:28:38;97913.41;;;9.90;82.19
4024;BME280;2026;51.002;13.668;2023-03-25T01:33:43;97931.75;;;9.90;82.45
4024;BME280;2026;51.002;13.668;2023-03-25T01:38:46;97911.50;;;9.85;82.49
4024;BME280;2026;51.002;13.668;2023-03-25T01:44:02;97899.66;;;9.83;82.70
4024;BME280;2026;51.002;13.668;2023-03-25T01:49:09;97886.81;;;9.81;83.35
4024;BME280;2026;51.002;13.668;2023-03-25T01:54:14;97868.09;;;9.89;83.06
4024;BME280;2026;51.002;13.668;2023-03-25T01:59:22;97860.63;;;9.81;83.46
4024;BME280;2026;51.002;13.668;2023-03-25T02:04:34;97863.75;;;9.95;82.71
4024;BME280;2026;51.002;13.668;2023-03-25T02:09:40;97863.81;;;10.00;82.42
4024;BME280;2026;51.002;13.668;2023-03-25T02:14:43;97864.09;;;9.99;82.50
4024;BME280;2026;51.002;13.668;2023-03-25T02:20:11;97865.91;;;10.15;81.02
4024;BME280;2026;51.002;13.668;2023-03-25T02:31:35;97857.09;;;10.04;81.20
4024;BME280;2026;51.002;13.668;2023-03-25T02:42:22;97843.44;;;10.02;81.43
4024;BME280;2026;51.002;13.668;2023-03-25T02:47:31;97829.56;;;10.02;81.22
4024;BME280;2026;51.002;13.668;2023-03-25T02:52:38;97848.06;;;9.95;82.07
4024;BME280;2026;51.002;13.668;2023-03-25T02:57:46;97831.38;;;10.01;82.12
4024;BME280;2026;51.002;13.668;2023-03-25T03:02:52;97842.16;;;9.88;83.03
4024;BME280;2026;51.002;13.668;2023-03-25T03:08:16;97842.16;;;9.88;83.04
4024;BME280;2026;51.002;13.668;2023-03-25T03:13:33;97828.75;;;9.84;83.02
4024;BME280;2026;51.002;13.668;2023-03-25T03:18:43;97831.69;;;9.88;82.29
4024;BME280;2026;51.002;13.668;2023-03-25T03:23:56;97830.25;;;9.80;82.32
4024;BME280;2026;51.002;13.668;2023-03-25T03:29:08;97832.53;;;9.76;81.89
4024;BME280;2026;51.002;13.668;2023-03-25T03:34:19;97841.75;;;9.79;81.44
4024;BME280;2026;51.002;13.668;2023-03-25T03:39:27;97839.38;;;9.77;81.33
4024;BME280;2026;51.002;13.668;2023-03-25T03:44:36;97839.19;;;9.67;81.96
4024;BME280;2026;51.002;13.668;2023-03-25T03:49:44;97854.28;;;9.77;81.28
4024;BME280;2026;51.002;13.668;2023-03-25T03:54:51;97850.88;;;9.76;80.89
4024;BME280;2026;51.002;13.668;2023-03-25T04:00:02;97855.66;;;9.80;80.84
4024;BME280;2026;51.002;13.668;2023-03-25T04:05:15;97860.56;;;9.76;81.14
4024;BME280;2026;51.002;13.668;2023-03-25T04:10:22;97859.59;;;9.82;80.71
4024;BME280;2026;51.002;13.668;2023-03-25T04:15:31;97868.97;;;9.78;80.95
4024;BME280;2026;51.002;13.668;2023-03-25T04:20:34;97854.22;;;9.89;80.11
4024;BME280;2026;51.002;13.668;2023-03-25T04:25:37;97862.31;;;9.87;80.61
4024;BME280;2026;51.002;13.668;2023-03-25T04:30:42;97863.72;;;9.78;81.19
4024;BME280;2026;51.002;13.668;2023-03-25T04:35:47;97867.53;;;9.87;80.69
4024;BME280;2026;51.002;13.668;2023-03-25T04:40:52;97868.03;;;9.84;81.76
4024;BME280;2026;51.002;13.668;2023-03-25T04:45:56;97866.03;;;9.74;81.52
4024;BME280;2026;51.002;13.668;2023-03-25T04:51:00;97880.38;;;9.72;80.88
4024;BME280;2026;51.002;13.668;2023-03-25T04:56:05;97889.91;;;9.78;80.92
4024;BME280;2026;51.002;13.668;2023-03-25T05:01:20;97872.13;;;9.80;80.51
4024;BME280;2026;51.002;13.668;2023-03-25T05:06:25;97865.88;;;9.81;79.54
4024;BME280;2026;51.002;13.668;2023-03-25T05:11:28;97868.25;;;9.83;79.46
4024;BME280;2026;51.002;13.668;2023-03-25T05:16:32;97868.16;;;9.77;79.86
4024;BME280;2026;51.002;13.668;2023-03-25T05:21:37;97883.38;;;9.63;80.18
4024;BME280;2026;51.002;13.668;2023-03-25T05:26:41;97890.66;;;9.61;80.22
4024;BME280;2026;51.002;13.668;2023-03-25T05:31:45;97872.19;;;9.68;79.84
4024;BME280;2026;51.002;13.668;2023-03-25T05:36:49;97892.41;;;9.73;78.03
4024;BME280;2026;51.002;13.668;2023-03-25T05:41:54;97893.63;;;9.82;75.90
4024;BME280;2026;51.002;13.668;2023-03-25T05:47:04;97906.53;;;9.72;75.07
4024;BME280;2026;51.002;13.668;2023-03-25T05:52:08;97887.38;;;9.54;75.55
4024;BME280;2026;51.002;13.668;2023-03-25T05:57:12;97901.13;;;9.61;74.51
4024;BME280;2026;51.002;13.668;2023-03-25T06:02:16;97909.78;;;9.50;75.01
4024;BME280;2026;51.002;13.668;2023-03-25T06:07:20;97922.78;;;9.45;76.06
4024;BME280;2026;51.002;13.668;2023-03-25T06:12:23;97913.69;;;9.35;76.86
4024;BME280;2026;51.002;13.668;2023-03-25T06:17:29;97925.97;;;9.35;76.90
4024;BME280;2026;51.002;13.668;2023-03-25T06:22:36;97953.88;;;9.17;78.33
4024;BME280;2026;51.002;13.668;2023-03-25T06:27:39;97947.47;;;9.25;78.15
4024;BME280;2026;51.002;13.668;2023-03-25T06:32:43;97960.88;;;9.41;78.29
4024;BME280;2026;51.002;13.668;2023-03-25T06:37:51;97967.06;;;10.68;72.81
4024;BME280;2026;51.002;13.668;2023-03-25T06:43:02;97966.66;;;11.33;70.52
4024;BME280;2026;51.002;13.668;2023-03-25T06:48:32;97963.56;;;11.80;68.66
4024;BME280;2026;51.002;13.668;2023-03-25T06:53:35;97968.56;;;12.09;65.93
4024;BME280;2026;51.002;13.668;2023-03-25T06:58:38;97973.78;;;12.04;65.73
4024;BME280;2026;51.002;13.668;2023-03-25T07:03:43;97975.16;;;12.12;66.73
4024;BME280;2026;51.002;13.668;2023-03-25T07:08:47;97964.03;;;11.77;66.66
4024;BME280;2026;51.002;13.668;2023-03-25T07:13:50;97960.63;;;12.64;66.04
4024;BME280;2026;51.002;13.668;2023-03-25T07:18:56;97966.53;;;12.49;63.97
4024;BME280;2026;51.002;13.668;2023-03-25T07:24:00;97974.31;;;13.04;63.00
4024;BME280;2026;51.002;13.668;2023-03-25T07:29:02;97970.59;;;13.48;60.84
4024;BME280;2026;51.002;13.668;2023-03-25T07:34:08;97973.53;;;13.04;62.96
4024;BME280;2026;51.002;13.668;2023-03-25T07:39:11;97971.59;;;11.96;64.46
4024;BME280;2026;51.002;13.668;2023-03-25T07:44:14;97984.81;;;11.79;65.57
4024;BME280;2026;51.002;13.668;2023-03-25T07:49:20;97996.78;;;11.47;67.61
4024;BME280;2026;51.002;13.668;2023-03-25T07:54:23;97987.00;;;11.42;70.09
4024;BME280;2026;51.002;13.668;2023-03-25T07:59:26;97993.38;;;11.29;73.13
4024;BME280;2026;51.002;13.668;2023-03-25T08:04:31;97993.66;;;11.11;74.36
4024;BME280;2026;51.002;13.668;2023-03-25T08:09:34;97986.75;;;11.44;75.85
4024;BME280;2026;51.002;13.668;2023-03-25T08:14:37;97982.66;;;11.53;73.47
4024;BME280;2026;51.002;13.668;2023-03-25T08:19:41;97980.72;;;11.66;74.50
4024;BME280;2026;51.002;13.668;2023-03-25T08:24:44;97981.16;;;11.58;73.83
4024;BME280;2026;51.002;13.668;2023-03-25T08:29:48;97990.91;;;10.83;76.01
4024;BME280;2026;51.002;13.668;2023-03-25T08:34:56;98024.19;;;9.78;82.95
4024;BME280;2026;51.002;13.668;2023-03-25T08:40:00;98025.34;;;9.71;86.57
4024;BME280;2026;51.002;13.668;2023-03-25T08:45:08;98027.94;;;9.83;86.69
4024;BME280;2026;51.002;13.668;2023-03-25T08:50:13;98039.72;;;9.56;85.59
4024;BME280;2026;51.002;13.668;2023-03-25T08:55:16;98029.00;;;9.70;84.86
4024;BME280;2026;51.002;13.668;2023-03-25T09:00:19;98040.03;;;9.72;86.93
4024;BME280;2026;51.002;13.668;2023-03-25T09:05:26;98032.88;;;9.67;86.23
4024;BME280;2026;51.002;13.668;2023-03-25T09:10:29;98047.00;;;9.66;86.34
4024;BME280;2026;51.002;13.668;2023-03-25T09:15:32;98048.75;;;9.89;85.63
4024;BME280;2026;51.002;13.668;2023-03-25T09:20:37;98056.28;;;9.50;86.72
4024;BME280;2026;51.002;13.668;2023-03-25T09:25:40;98054.72;;;9.25;87.74
4024;BME280;2026;51.002;13.668;2023-03-25T09:30:43;98040.41;;;9.16;86.53
4024;BME280;2026;51.002;13.668;2023-03-25T09:35:48;98038.13;;;9.19;88.10
4024;BME280;2026;51.002;13.668;2023-03-25T09:40:51;98034.81;;;9.36;90.37
4024;BME280;2026;51.002;13.668;2023-03-25T09:45:55;98032.44;;;9.10;89.84
4024;BME280;2026;51.002;13.668;2023-03-25T09:51:02;98026.72;;;9.73;88.81
4024;BME280;2026;51.002;13.668;2023-03-25T09:56:11;98032.91;;;10.25;88.90
4024;BME280;2026;51.002;13.668;2023-03-25T10:01:22;98026.06;;;10.53;87.53
4024;BME280;2026;51.002;13.668;2023-03-25T10:06:31;98027.75;;;10.59;86.29
4024;BME280;2026;51.002;13.668;2023-03-25T10:11:43;98014.09;;;10.74;88.43
4024;BME280;2026;51.002;13.668;2023-03-25T10:16:59;98012.59;;;10.79;87.82
4024;BME280;2026;51.002;13.668;2023-03-25T10:22:11;97990.22;;;11.94;88.52
4024;BME280;2026;51.002;13.668;2023-03-25T10:27:21;97986.03;;;12.21;81.38
4024;BME280;2026;51.002;13.668;2023-03-25T10:32:31;97990.81;;;11.52;79.18
4024;BME280;2026;51.002;13.668;2023-03-25T10:37:40;97987.41;;;12.61;75.91
4024;BME280;2026;51.002;13.668;2023-03-25T10:42:49;97976.19;;;12.38;71.93
4024;BME280;2026;51.002;13.668;2023-03-25T10:48:03;97984.59;;;11.86;72.93
4024;BME280;2026;51.002;13.668;2023-03-25T10:53:18;97972.66;;;11.73;72.41
4024;BME280;2026;51.002;13.668;2023-03-25T10:58:22;97967.63;;;12.21;69.73
4024;BME280;2026;51.002;13.668;2023-03-25T11:03:29;97965.78;;;12.54;69.03
4024;BME280;2026;51.002;13.668;2023-03-25T11:08:35;97970.94;;;12.38;67.69
4024;BME280;2026;51.002;13.668;2023-03-25T11:13:38;97959.47;;;12.55;66.74
4024;BME280;2026;51.002;13.668;2023-03-25T11:18:44;97946.63;;;12.54;65.43
4024;BME280;2026;51.002;13.668;2023-03-25T11:23:50;97954.97;;;12.50;67.93
4024;BME280;2026;51.002;13.668;2023-03-25T11:28:55;97951.59;;;12.55;66.63
4024;BME280;2026;51.002;13.668;2023-03-25T11:34:04;97985.66;;;11.62;69.71
4024;BME280;2026;51.002;13.668;2023-03-25T11:39:16;97984.50;;;11.75;73.55
4024;BME280;2026;51.002;13.668;2023-03-25T11:44:21;97979.94;;;12.15;71.46
4024;BME280;2026;51.002;13.668;2023-03-25T11:49:25;97959.31;;;12.67;68.74
4024;BME280;2026;51.002;13.668;2023-03-25T11:54:32;97932.72;;;12.58;66.29
4024;BME280;2026;51.002;13.668;2023-03-25T11:59:38;97924.13;;;13.16;67.96
4024;BME280;2026;51.002;13.668;2023-03-25T12:04:55;97914.25;;;13.44;63.37
4024;BME280;2026;51.002;13.668;2023-03-25T12:10:04;97917.81;;;13.17;64.06
4024;BME280;2026;51.002;13.668;2023-03-25T12:15:16;97915.25;;;13.38;62.55
4024;BME280;2026;51.002;13.668;2023-03-25T12:20:25;97916.53;;;13.25;60.16
4024;BME280;2026;51.002;13.668;2023-03-25T12:25:38;97896.31;;;13.46;59.42
4024;BME280;2026;51.002;13.668;2023-03-25T12:30:53;97884.56;;;13.91;58.44
4024;BME280;2026;51.002;13.668;2023-03-25T12:36:13;97884.31;;;14.39;56.81
4024;BME280;2026;51.002;13.668;2023-03-25T12:41:27;97887.47;;;14.05;57.16
4024;BME280;2026;51.002;13.668;2023-03-25T12:47:06;97927.28;;;13.18;59.93
4024;BME280;2026;51.002;13.668;2023-03-25T12:52:18;97923.00;;;11.44;69.97
4024;BME280;2026;51.002;13.668;2023-03-25T12:57:38;97883.59;;;12.31;70.14
4024;BME280;2026;51.002;13.668;2023-03-25T13:03:02;97890.38;;;12.22;69.54
4024;BME280;2026;51.002;13.668;2023-03-25T13:08:13;97906.00;;;12.06;70.94
4024;BME280;2026;51.002;13.668;2023-03-25T13:13:20;97890.38;;;12.22;71.31
4024;BME280;2026;51.002;13.668;2023-03-25T13:18:29;97884.47;;;12.80;69.58
4024;BME280;2026;51.002;13.668;2023-03-25T13:23:34;97873.25;;;12.52;68.11
4024;BME280;2026;51.002;13.668;2023-03-25T13:28:44;97851.09;;;12.43;66.96
4024;BME280;2026;51.002;13.668;2023-03-25T13:33:52;97848.63;;;12.69;66.67
4024;BME280;2026;51.002;13.668;2023-03-25T13:39:01;97838.13;;;12.79;66.15
4024;BME280;2026;51.002;13.668;2023-03-25T13:44:15;97848.16;;;12.87;64.67
4024;BME280;2026;51.002;13.668;2023-03-25T13:49:26;97838.91;;;12.69;65.52
4024;BME280;2026;51.002;13.668;2023-03-25T13:54:35;97849.94;;;13.30;62.80
4024;BME280;2026;51.002;13.668;2023-03-25T14:00:15;97841.59;;;13.54;60.68
4024;BME280;2026;51.002;13.668;2023-03-25T14:05:50;97842.59;;;13.42;59.69
4024;BME280;2026;51.002;13.668;2023-03-25T14:11:14;97837.88;;;13.44;59.22
4024;BME280;2026;51.002;13.668;2023-03-25T14:16:24;97836.81;;;13.45;58.70
4024;BME280;2026;51.002;13.668;2023-03-25T14:21:33;97824.09;;;13.11;57.29
4024;BME280;2026;51.002;13.668;2023-03-25T14:26:47;97836.84;;;13.51;58.54
4024;BME280;2026;51.002;13.668;2023-03-25T14:32:04;97838.84;;;13.17;57.91
4024;BME280;2026;51.002;13.668;2023-03-25T14:37:24;97871.13;;;13.02;58.72
4024;BME280;2026;51.002;13.668;2023-03-25T14:42:56;97975.03;;;9.81;76.65
4024;BME280;2026;51.002;13.668;2023-03-25T14:48:05;97955.56;;;9.12;81.48
4024;BME280;2026;51.002;13.668;2023-03-25T14:53:26;97951.13;;;9.24;80.92
4024;BME280;2026;51.002;13.668;2023-03-25T14:58:30;97930.34;;;9.17;80.35
4024;BME280;2026;51.002;13.668;2023-03-25T15:03:37;97913.56;;;9.42;79.11
4024;BME280;2026;51.002;13.668;2023-03-25T15:08:51;97895.69;;;9.51;77.53
4024;BME280;2026;51.002;13.668;2023-03-25T15:13:59;97862.41;;;9.93;75.07
4024;BME280;2026;51.002;13.668;2023-03-25T15:19:09;97866.22;;;10.36;72.87
4024;BME280;2026;51.002;13.668;2023-03-25T15:24:15;97873.22;;;10.87;71.73
4024;BME280;2026;51.002;13.668;2023-03-25T15:29:32;97878.56;;;10.97;68.64
4024;BME280;2026;51.002;13.668;2023-03-25T15:35:11;97878.28;;;11.38;66.39
4024;BME280;2026;51.002;13.668;2023-03-25T15:40:29;97876.59;;;11.49;65.99
4024;BME280;2026;51.002;13.668;2023-03-25T15:51:27;97891.56;;;10.87;64.87
4024;BME280;2026;51.002;13.668;2023-03-25T15:56:38;97901.75;;;11.06;65.21
4024;BME280;2026;51.002;13.668;2023-03-25T16:01:46;97910.97;;;10.52;66.97
4024;BME280;2026;51.002;13.668;2023-03-25T16:06:54;97918.22;;;10.62;67.00
4024;BME280;2026;51.002;13.668;2023-03-25T16:11:59;97921.78;;;10.72;66.46
4024;BME280;2026;51.002;13.668;2023-03-25T16:17:04;97913.22;;;10.43;67.37
4024;BME280;2026;51.002;13.668;2023-03-25T16:22:16;97912.97;;;10.44;66.98
4024;BME280;2026;51.002;13.668;2023-03-25T16:27:23;97926.72;;;10.52;67.53
4024;BME280;2026;51.002;13.668;2023-03-25T16:32:30;97925.34;;;10.66;66.85
4024;BME280;2026;51.002;13.668;2023-03-25T16:37:35;97920.59;;;10.46;67.10
4024;BME280;2026;51.002;13.668;2023-03-25T16:42:38;97915.28;;;10.24;67.55
4024;BME280;2026;51.002;13.668;2023-03-25T16:47:41;97916.31;;;10.23;67.66
4024;BME280;2026;51.002;13.668;2023-03-25T16:52:49;97912.31;;;10.03;68.58
4024;BME280;2026;51.002;13.668;2023-03-25T16:57:53;97918.00;;;9.83;69.38
4024;BME280;2026;51.002;13.668;2023-03-25T17:02:58;97917.50;;;9.69;69.66
4024;BME280;2026;51.002;13.668;2023-03-25T17:08:04;97907.97;;;9.50;71.00
4024;BME280;2026;51.002;13.668;2023-03-25T17:13:16;97913.94;;;9.34;72.42
4024;BME280;2026;51.002;13.668;2023-03-25T17:18:25;97914.47;;;9.36;72.26
4024;BME280;2026;51.002;13.668;2023-03-25T17:23:35;97909.03;;;9.37;72.15
4024;BME280;2026;51.002;13.668;2023-03-25T17:28:39;97910.06;;;9.36;71.95
4024;BME280;2026;51.002;13.668;2023-03-25T17:33:47;97918.75;;;9.13;73.19
4024;BME280;2026;51.002;13.668;2023-03-25T17:38:51;97924.88;;;9.19;72.94
4024;BME280;2026;51.002;13.668;2023-03-25T17:43:56;97927.75;;;9.05;73.59
4024;BME280;2026;51.002;13.668;2023-03-25T17:49:00;97929.78;;;9.03;74.35
4024;BME280;2026;51.002;13.668;2023-03-25T17:54:04;97926.91;;;9.17;73.53
4024;BME280;2026;51.002;13.668;2023-03-25T17:59:12;97930.78;;;9.02;73.95
4024;BME280;2026;51.002;13.668;2023-03-25T18:04:18;97925.22;;;8.99;73.65
4024;BME280;2026;51.002;13.668;2023-03-25T18:09:23;97930.59;;;8.92;74.43
4024;BME280;2026;51.002;13.668;2023-03-25T18:14:26;97930.81;;;8.90;74.57
4024;BME280;2026;51.002;13.668;2023-03-25T18:19:30;97927.16;;;8.91;74.43
4024;BME280;2026;51.002;13.668;2023-03-25T18:24:36;97943.66;;;8.92;74.61
4024;BME280;2026;51.002;13.668;2023-03-25T18:29:39;97954.00;;;8.87;75.44
4024;BME280;2026;51.002;13.668;2023-03-25T18:34:42;97954.47;;;8.84;75.68
4024;BME280;2026;51.002;13.668;2023-03-25T18:39:47;97964.69;;;8.97;74.79
4024;BME280;2026;51.002;13.668;2023-03-25T18:44:49;97964.56;;;8.92;75.41
4024;BME280;2026;51.002;13.668;2023-03-25T18:49:53;97960.03;;;8.87;75.43
4024;BME280;2026;51.002;13.668;2023-03-25T18:54:58;97950.00;;;8.96;75.86
4024;BME280;2026;51.002;13.668;2023-03-25T19:00:02;97958.31;;;9.05;76.36
4024;BME280;2026;51.002;13.668;2023-03-25T19:05:08;97953.22;;;8.98;76.36
4024;BME280;2026;51.002;13.668;2023-03-25T19:10:19;97949.00;;;9.09;76.64
4024;BME280;2026;51.002;13.668;2023-03-25T19:15:24;97962.97;;;9.03;76.48
4024;BME280;2026;51.002;13.668;2023-03-25T19:20:30;97947.38;;;9.08;76.56
4024;BME280;2026;51.002;13.668;2023-03-25T19:25:35;97948.53;;;9.12;76.34
4024;BME280;2026;51.002;13.668;2023-03-25T19:30:38;97947.50;;;9.13;76.28
4024;BME280;2026;51.002;13.668;2023-03-25T19:35:54;97954.66;;;9.18;75.79
4024;BME280;2026;51.002;13.668;2023-03-25T19:41:06;97961.13;;;9.27;75.37
4024;BME280;2026;51.002;13.668;2023-03-25T19:46:10;97978.50;;;9.45;74.55
4024;BME280;2026;51.002;13.668;2023-03-25T19:51:14;98013.75;;;9.43;74.86
4024;BME280;2026;51.002;13.668;2023-03-25T19:56:18;98004.47;;;9.11;79.42
4024;BME280;2026;51.002;13.668;2023-03-25T20:01:21;98020.81;;;8.82;81.84
4024;BME280;2026;51.002;13.668;2023-03-25T20:06:24;97978.84;;;8.53;83.93
4024;BME280;2026;51.002;13.668;2023-03-25T20:11:29;97962.16;;;8.54;84.36
4024;BME280;2026;51.002;13.668;2023-03-25T20:16:32;97947.84;;;8.45;85.27
4024;BME280;2026;51.002;13.668;2023-03-25T20:21:35;97953.97;;;8.51;84.79
4024;BME280;2026;51.002;13.668;2023-03-25T20:26:40;97940.78;;;8.46;84.38
4024;BME280;2026;51.002;13.668;2023-03-25T20:31:43;97954.66;;;8.46;84.00
4024;BME280;2026;51.002;13.668;2023-03-25T20:36:46;97957.94;;;8.41;83.89
4024;BME280;2026;51.002;13.668;2023-03-25T20:41:52;97985.78;;;8.48;86.17
4024;BME280;2026;51.002;13.668;2023-03-25T20:46:55;97930.41;;;8.27;87.08
4024;BME280;2026;51.002;13.668;2023-03-25T20:51:58;97918.22;;;8.09;87.70
4024;BME280;2026;51.002;13.668;2023-03-25T20:57:04;97909.03;;;8.06;87.00
4024;BME280;2026;51.002;13.668;2023-03-25T21:02:08;97909.16;;;7.69;89.27
4024;BME280;2026;51.002;13.668;2023-03-25T21:07:12;97921.44;;;7.80;88.07
4024;BME280;2026;51.002;13.668;2023-03-25T21:12:16;97916.81;;;7.94;87.42
4024;BME280;2026;51.002;13.668;2023-03-25T21:17:19;97911.38;;;7.96;87.29
4024;BME280;2026;51.002;13.668;2023-03-25T21:22:22;97918.69;;;8.06;87.25
4024;BME280;2026;51.002;13.668;2023-03-25T21:27:29;97926.63;;;8.11;87.33
4024;BME280;2026;51.002;13.668;2023-03-25T21:32:40;97913.81;;;8.09;86.39
4024;BME280;2026;51.002;13.668;2023-03-25T21:37:44;97915.28;;;8.17;86.66
4024;BME280;2026;51.002;13.668;2023-03-25T21:42:48;97913.06;;;8.33;85.75
4024;BME280;2026;51.002;13.668;2023-03-25T21:47:52;97923.41;;;8.39;84.77
4024;BME280;2026;51.002;13.668;2023-03-25T21:52:56;97928.53;;;8.46;84.22
4024;BME280;2026;51.002;13.668;2023-03-25T21:58:05;97930.44;;;8.39;83.56
4024;BME280;2026;51.002;13.668;2023-03-25T22:03:10;97930.25;;;8.52;82.72
4024;BME280;2026;51.002;13.668;2023-03-25T22:08:13;97935.00;;;8.55;81.32
4024;BME280;2026;51.002;13.668;2023-03-25T22:13:18;97926.94;;;8.57;81.68
4024;BME280;2026;51.002;13.668;2023-03-25T22:18:21;97930.00;;;8.54;80.67
4024;BME280;2026;51.002;13.668;2023-03-25T22:23:24;97924.69;;;8.61;80.90
4024;BME280;2026;51.002;13.668;2023-03-25T22:28:29;97926.16;;;8.68;80.75
4024;BME280;2026;51.002;13.668;2023-03-25T22:33:32;97935.34;;;8.59;80.90
4024;BME280;2026;51.002;13.668;2023-03-25T22:38:37;97917.53;;;8.56;81.14
4024;BME280;2026;51.002;13.668;2023-03-25T22:43:43;97926.03;;;8.63;79.75
4024;BME280;2026;51.002;13.668;2023-03-25T22:48:47;97925.59;;;8.66;80.60
4024;BME280;2026;51.002;13.668;2023-03-25T22:53:50;97911.41;;;8.62;80.45
4024;BME280;2026;51.002;13.668;2023-03-25T22:58:54;97915.13;;;8.54;81.23
4024;BME280;2026;51.002;13.668;2023-03-25T23:03:57;97925.13;;;8.58;80.82
4024;BME280;2026;51.002;13.668;2023-03-25T23:09:01;97911.94;;;8.52;81.51
4024;BME280;2026;51.002;13.668;2023-03-25T23:14:08;97918.75;;;8.53;82.19
4024;BME280;2026;51.002;13.668;2023-03-25T23:19:11;97926.38;;;8.43;82.19
4024;BME280;2026;51.002;13.668;2023-03-25T23:24:14;97916.03;;;8.48;82.84
4024;BME280;2026;51.002;13.668;2023-03-25T23:29:18;97919.78;;;8.52;82.35
4024;BME280;2026;51.002;13.668;2023-03-25T23:34:21;97915.81;;;8.50;82.16
4024;BME280;2026;51.002;13.668;2023-03-25T23:39:24;97927.97;;;8.44;81.77
4024;BME280;2026;51.002;13.668;2023-03-25T23:44:29;97911.59;;;8.37;81.93
4024;BME280;2026;51.002;13.668;2023-03-25T23:49:32;97927.69;;;8.34;81.96
4024;BME280;2026;51.002;13.668;2023-03-25T23:54:39;97933.63;;;8.41;81.26
4024;BME280;2026;51.002;13.668;2023-03-25T23:59:43;97940.44;;;8.42;80.65
